createdAt,value
2023-08-20T00:01:28.989Z,11.50
2023-08-20T00:03:57.111Z,11.20
2023-08-20T00:06:25.304Z,10.90
2023-08-20T00:08:53.348Z,9.63
2023-08-20T00:11:20.791Z,10.03
2023-08-20T00:13:48.189Z,10.67
2023-08-20T00:16:16.600Z,9.30
2023-08-20T00:18:44.224Z,10.30
2023-08-20T00:21:12.378Z,10.23
2023-08-20T00:23:39.895Z,9.63
2023-08-20T00:26:07.378Z,9.30
2023-08-20T00:28:35.068Z,8.27
2023-08-20T00:31:03.148Z,7.77
2023-08-20T00:33:30.571Z,8.70
2023-08-20T00:35:57.998Z,8.20
2023-08-20T00:38:25.405Z,8.40
2023-08-20T00:40:52.758Z,7.97
2023-08-20T00:43:20.159Z,8.20
2023-08-20T00:45:47.811Z,7.70
2023-08-20T00:48:16.043Z,7.33
2023-08-20T00:50:43.427Z,8.20
2023-08-20T00:53:12.784Z,6.90
2023-08-20T00:55:40.222Z,8.07
2023-08-20T00:58:07.897Z,7.40
2023-08-20T01:00:35.256Z,8.30
2023-08-20T01:03:02.782Z,7.73
2023-08-20T01:05:31.735Z,7.40
2023-08-20T01:08:18.980Z,8.17
2023-08-20T01:10:49.828Z,7.87
2023-08-20T01:13:17.745Z,7.57
2023-08-20T01:15:45.220Z,7.10
2023-08-20T01:18:12.572Z,7.17
2023-08-20T01:20:41.453Z,6.60
2023-08-20T01:23:10.368Z,7.47
2023-08-20T01:25:54.964Z,6.90
2023-08-20T01:28:26.935Z,8.30
2023-08-20T01:30:55.985Z,7.43
2023-08-20T01:33:23.433Z,8.40
2023-08-20T01:35:50.995Z,7.33
2023-08-20T01:38:18.425Z,7.63
2023-08-20T01:40:45.821Z,8.70
2023-08-20T01:43:13.172Z,7.90
2023-08-20T01:45:40.653Z,8.27
2023-08-20T01:48:08.361Z,8.40
2023-08-20T01:50:36.349Z,8.93
2023-08-20T01:53:04.597Z,9.77
2023-08-20T01:55:33.048Z,9.30
2023-08-20T01:58:01.107Z,9.90
2023-08-20T02:00:29.659Z,9.90
2023-08-20T02:02:57.068Z,10.20
2023-08-20T02:05:24.502Z,10.97
2023-08-20T02:07:51.878Z,10.77
2023-08-20T02:10:19.253Z,9.90
2023-08-20T02:12:46.696Z,11.07
2023-08-20T02:15:14.117Z,11.60
2023-08-20T02:17:41.535Z,11.30
2023-08-20T02:20:10.761Z,10.60
2023-08-20T02:22:38.172Z,10.50
2023-08-20T02:25:05.669Z,11.13
2023-08-20T02:27:33.478Z,11.23
2023-08-20T02:30:01.347Z,11.93
2023-08-20T02:32:29.242Z,12.10
2023-08-20T02:34:56.727Z,10.73
2023-08-20T02:37:24.130Z,10.97
2023-08-20T02:39:51.550Z,10.80
2023-08-20T02:42:18.968Z,13.03
2023-08-20T02:44:46.379Z,11.50
2023-08-20T02:47:13.804Z,11.60
2023-08-20T02:49:41.149Z,11.37
2023-08-20T02:52:08.658Z,12.27
2023-08-20T02:54:36.048Z,11.00
2023-08-20T02:57:04.112Z,13.43
2023-08-20T02:59:31.612Z,14.33
2023-08-20T03:01:59.087Z,12.77
2023-08-20T03:04:26.476Z,11.93
2023-08-20T03:06:53.861Z,13.43
2023-08-20T03:09:21.561Z,15.43
2023-08-20T03:11:48.959Z,12.70
2023-08-20T03:14:16.396Z,12.93
2023-08-20T03:16:43.826Z,14.20
2023-08-20T03:19:11.380Z,13.43
2023-08-20T03:21:38.786Z,13.07
2023-08-20T03:24:06.584Z,14.57
2023-08-20T03:26:33.947Z,13.40
2023-08-20T03:29:01.384Z,14.80
2023-08-20T03:31:28.824Z,13.30
2023-08-20T03:33:56.233Z,12.27
2023-08-20T03:36:23.633Z,14.60
2023-08-20T03:38:51.000Z,12.70
2023-08-20T03:41:18.769Z,14.37
2023-08-20T03:43:46.644Z,13.67
2023-08-20T03:46:14.148Z,15.10
2023-08-20T03:48:41.530Z,13.20
2023-08-20T03:51:08.934Z,12.93
2023-08-20T03:53:36.363Z,13.77
2023-08-20T03:56:04.125Z,13.50
2023-08-20T03:58:31.906Z,11.60
2023-08-20T04:00:59.833Z,12.93
2023-08-20T04:03:27.742Z,13.47
2023-08-20T04:05:55.149Z,13.77
2023-08-20T04:08:22.585Z,13.20
2023-08-20T04:10:49.924Z,15.50
2023-08-20T04:13:17.356Z,13.23
2023-08-20T04:15:44.809Z,14.43
2023-08-20T04:18:12.340Z,13.30
2023-08-20T04:20:39.749Z,15.10
2023-08-20T04:23:07.223Z,13.77
2023-08-20T04:25:34.601Z,14.53
2023-08-20T04:28:01.995Z,15.13
2023-08-20T04:30:29.356Z,14.20
2023-08-20T04:32:57.173Z,13.80
2023-08-20T04:35:24.538Z,13.73
2023-08-20T04:37:51.976Z,14.60
2023-08-20T04:40:19.793Z,15.67
2023-08-20T04:42:47.245Z,14.77
2023-08-20T04:45:14.634Z,15.53
2023-08-20T04:47:42.085Z,13.13
2023-08-20T04:50:09.559Z,14.73
2023-08-20T04:52:36.913Z,13.50
2023-08-20T04:55:04.398Z,12.50
2023-08-20T04:57:32.220Z,13.60
2023-08-20T04:59:59.625Z,15.17
2023-08-20T05:02:29.798Z,15.53
2023-08-20T05:04:56.069Z,16.00
2023-08-20T05:07:23.490Z,14.57
2023-08-20T05:09:51.489Z,14.20
2023-08-20T05:12:18.904Z,14.63
2023-08-20T05:14:46.356Z,14.30
2023-08-20T05:17:13.777Z,15.30
2023-08-20T05:19:41.210Z,14.33
2023-08-20T05:22:08.745Z,14.70
2023-08-20T05:24:36.165Z,13.50
2023-08-20T05:27:10.253Z,14.00
2023-08-20T05:29:39.416Z,13.37
2023-08-20T05:32:07.016Z,14.17
2023-08-20T05:34:34.428Z,14.70
2023-08-20T05:37:02.002Z,12.60
2023-08-20T05:39:29.441Z,12.23
2023-08-20T05:41:56.875Z,13.00
2023-08-20T05:44:24.310Z,12.90
2023-08-20T05:46:51.809Z,13.57
2023-08-20T05:49:19.343Z,12.77
2023-08-20T05:51:46.768Z,12.20
2023-08-20T05:54:14.178Z,12.90
2023-08-20T05:56:41.637Z,13.37
2023-08-20T05:59:09.050Z,12.07
2023-08-20T06:01:36.522Z,12.60
2023-08-20T06:04:03.968Z,12.87
2023-08-20T06:06:31.972Z,13.30
2023-08-20T06:09:08.343Z,13.00
2023-08-20T06:11:28.956Z,13.20
2023-08-20T06:13:56.387Z,13.10
2023-08-20T06:16:23.950Z,13.50
2023-08-20T06:18:51.448Z,13.67
2023-08-20T06:21:18.809Z,15.40
2023-08-20T06:23:46.219Z,14.77
2023-08-20T06:26:13.651Z,13.50
2023-08-20T06:28:41.086Z,12.40
2023-08-20T06:31:08.524Z,12.13
2023-08-20T06:33:36.022Z,12.70
2023-08-20T06:36:03.523Z,13.53
2023-08-20T06:38:30.954Z,12.80
2023-08-20T06:40:58.393Z,13.90
2023-08-20T06:43:25.843Z,13.83
2023-08-20T06:45:53.383Z,12.90
2023-08-20T06:48:22.513Z,13.57
2023-08-20T06:50:50.060Z,12.90
2023-08-20T06:53:17.491Z,14.20
2023-08-20T06:55:44.850Z,14.67
2023-08-20T06:58:12.265Z,13.70
2023-08-20T07:00:39.640Z,14.17
2023-08-20T07:03:07.265Z,14.07
2023-08-20T07:05:35.060Z,13.40
2023-08-20T07:08:02.498Z,12.60
2023-08-20T07:10:29.939Z,11.93
2023-08-20T07:12:57.365Z,14.33
2023-08-20T07:15:24.816Z,13.00
2023-08-20T07:17:52.267Z,12.33
2023-08-20T07:20:20.171Z,15.30
2023-08-20T07:22:47.643Z,14.20
2023-08-20T07:25:15.021Z,14.20
2023-08-20T07:27:45.099Z,14.60
2023-08-20T07:30:12.978Z,13.27
2023-08-20T07:32:41.401Z,13.97
2023-08-20T07:35:12.041Z,13.43
2023-08-20T07:37:38.587Z,13.83
2023-08-20T07:40:06.424Z,13.97
2023-08-20T07:42:33.823Z,13.90
2023-08-20T07:45:01.201Z,12.47
2023-08-20T07:47:29.910Z,12.10
2023-08-20T07:49:57.535Z,11.80
2023-08-20T07:52:24.977Z,12.50
2023-08-20T07:54:52.950Z,11.70
2023-08-20T07:57:20.380Z,13.17
2023-08-20T07:59:47.811Z,12.87
2023-08-20T08:02:15.275Z,11.43
2023-08-20T08:04:44.202Z,11.40
2023-08-20T08:07:12.877Z,13.50
2023-08-20T08:09:40.315Z,11.27
2023-08-20T08:12:07.868Z,12.10
2023-08-20T08:14:35.244Z,10.67
2023-08-20T08:17:02.731Z,11.50
2023-08-20T08:19:30.217Z,10.07
2023-08-20T08:21:57.846Z,12.40
2023-08-20T08:24:25.253Z,13.10
2023-08-20T08:29:31.596Z,12.73
2023-08-20T08:31:59.003Z,12.50
2023-08-20T08:34:26.376Z,11.97
2023-08-20T08:36:53.799Z,10.97
2023-08-20T08:39:21.198Z,11.57
2023-08-20T08:41:50.187Z,13.10
2023-08-20T08:44:18.299Z,11.00
2023-08-20T08:46:45.838Z,11.83
2023-08-20T08:49:13.339Z,10.77
2023-08-20T08:51:41.530Z,9.47
2023-08-20T08:54:09.947Z,8.30
2023-08-20T08:56:37.375Z,9.10
2023-08-20T08:59:04.803Z,9.80
2023-08-20T09:01:34.319Z,9.30
2023-08-20T09:04:01.333Z,9.20
2023-08-20T09:06:29.278Z,9.30
2023-08-20T09:08:58.252Z,8.60
2023-08-20T09:11:27.193Z,8.77
2023-08-20T09:13:54.630Z,8.20
2023-08-20T09:16:22.056Z,9.00
2023-08-20T09:18:49.948Z,7.87
2023-08-20T09:21:17.362Z,8.47
2023-08-20T09:23:46.334Z,6.10
2023-08-20T09:26:15.231Z,9.33
2023-08-20T09:28:43.862Z,9.20
2023-08-20T09:31:12.028Z,7.07
2023-08-20T09:33:41.165Z,6.30
2023-08-20T09:36:09.937Z,7.53
2023-08-20T09:38:40.263Z,6.93
2023-08-20T09:41:10.166Z,7.30
2023-08-20T09:43:39.135Z,6.53
2023-08-20T09:46:09.489Z,5.90
2023-08-20T09:48:36.633Z,6.70
2023-08-20T09:51:05.564Z,6.33
2023-08-20T09:53:37.828Z,6.37
2023-08-20T09:56:12.051Z,6.17
2023-08-20T09:58:39.888Z,6.33
2023-08-20T10:01:08.790Z,7.27
2023-08-20T10:03:36.527Z,6.90
2023-08-20T10:06:04.248Z,8.00
2023-08-20T10:08:31.974Z,7.40
2023-08-20T10:10:59.423Z,8.90
2023-08-20T10:13:26.880Z,11.03
2023-08-20T10:15:56.172Z,7.73
2023-08-20T10:18:23.939Z,7.60
2023-08-20T10:20:52.427Z,7.67
2023-08-20T10:23:26.212Z,6.20
2023-08-20T10:25:54.484Z,7.10
2023-08-20T10:28:23.491Z,7.57
2023-08-20T10:31:08.002Z,8.27
2023-08-20T10:33:37.135Z,6.60
2023-08-20T10:36:11.512Z,7.40
2023-08-20T10:38:39.785Z,6.87
2023-08-20T10:41:10.562Z,7.00
2023-08-20T10:43:42.000Z,8.60
2023-08-20T10:46:11.080Z,6.73
2023-08-20T10:48:39.876Z,9.03
2023-08-20T10:51:14.844Z,7.63
2023-08-20T10:53:43.341Z,7.67
2023-08-20T10:56:12.323Z,7.30
2023-08-20T10:58:41.734Z,6.27
2023-08-20T11:01:18.606Z,6.17
2023-08-20T11:03:46.382Z,6.30
2023-08-20T11:06:14.166Z,6.10
2023-08-20T11:08:43.017Z,8.07
2023-08-20T11:11:11.261Z,7.67
2023-08-20T11:13:38.758Z,9.07
2023-08-20T11:16:08.750Z,7.10
2023-08-20T11:18:36.348Z,6.60
2023-08-20T11:21:04.150Z,6.33
2023-08-20T11:23:32.599Z,6.53
2023-08-20T11:26:00.026Z,5.87
2023-08-20T11:28:29.085Z,7.30
2023-08-20T11:30:57.109Z,6.40
2023-08-20T11:33:25.451Z,6.73
2023-08-20T11:35:53.606Z,5.20
2023-08-20T11:38:21.912Z,7.13
2023-08-20T11:40:49.332Z,6.80
2023-08-20T11:43:17.752Z,5.87
2023-08-20T11:45:51.294Z,5.90
2023-08-20T11:48:18.669Z,5.63
2023-08-20T11:50:46.083Z,6.00
2023-08-20T11:53:13.581Z,5.30
2023-08-20T11:55:42.355Z,5.80
2023-08-20T11:58:15.957Z,7.00
2023-08-20T12:00:43.880Z,5.10
2023-08-20T12:03:11.566Z,5.23
2023-08-20T12:05:40.735Z,5.93
2023-08-20T12:08:08.166Z,5.87
2023-08-20T12:10:35.538Z,5.63
2023-08-20T12:13:03.905Z,4.97
2023-08-20T12:15:31.346Z,5.60
2023-08-20T12:17:59.531Z,6.13
2023-08-20T12:20:28.481Z,6.30
2023-08-20T12:22:55.957Z,5.87
2023-08-20T12:25:23.329Z,5.23
2023-08-20T12:27:50.761Z,5.10
2023-08-20T12:30:18.298Z,5.70
2023-08-20T12:32:45.764Z,5.90
2023-08-20T12:35:14.054Z,4.97
2023-08-20T12:37:41.467Z,6.57
2023-08-20T12:40:11.071Z,4.97
2023-08-20T12:42:40.667Z,5.13
2023-08-20T12:45:09.057Z,5.53
2023-08-20T12:47:37.123Z,5.00
2023-08-20T12:50:05.281Z,5.00
2023-08-20T12:52:33.564Z,5.10
2023-08-20T12:55:01.014Z,10.70
2023-08-20T12:57:29.207Z,4.87
2023-08-20T12:59:56.641Z,5.43
2023-08-20T13:02:24.605Z,6.03
2023-08-20T13:04:52.180Z,4.90
2023-08-20T13:07:19.757Z,4.57
2023-08-20T13:09:47.263Z,4.63
2023-08-20T13:12:15.466Z,5.00
2023-08-20T13:14:43.447Z,4.77
2023-08-20T13:17:11.031Z,5.50
2023-08-20T13:19:38.449Z,6.17
2023-08-20T13:22:07.022Z,6.33
2023-08-20T13:24:34.512Z,5.80
2023-08-20T13:27:01.934Z,5.40
2023-08-20T13:29:29.740Z,5.70
2023-08-20T13:31:57.235Z,5.63
2023-08-20T13:34:24.725Z,5.03
2023-08-20T13:36:52.186Z,5.13
2023-08-20T13:39:19.685Z,5.23
2023-08-20T13:41:48.162Z,6.40
2023-08-20T13:44:15.603Z,6.77
2023-08-20T13:46:43.014Z,5.27
2023-08-20T13:49:10.599Z,4.60
2023-08-20T13:51:38.092Z,6.17
2023-08-20T13:54:05.650Z,5.77
2023-08-20T13:56:33.073Z,6.10
2023-08-20T13:59:00.855Z,6.30
2023-08-20T14:01:28.365Z,6.70
2023-08-20T14:03:56.506Z,4.10
2023-08-20T14:06:23.994Z,5.30
2023-08-20T14:08:51.363Z,5.50
2023-08-20T14:11:18.811Z,4.50
2023-08-20T14:13:46.264Z,5.57
2023-08-20T14:16:13.766Z,4.33
2023-08-20T14:18:41.627Z,4.80
2023-08-20T14:21:09.080Z,5.87
2023-08-20T14:23:36.514Z,4.67
2023-08-20T14:26:05.697Z,4.60
2023-08-20T14:28:33.170Z,4.70
2023-08-20T14:31:02.163Z,5.40
2023-08-20T14:33:29.578Z,5.70
2023-08-20T14:35:57.036Z,5.00
2023-08-20T14:38:24.466Z,4.93
2023-08-20T14:40:51.918Z,4.60
2023-08-20T14:43:19.375Z,4.07
2023-08-20T14:45:47.167Z,4.30
2023-08-20T14:48:15.049Z,4.37
2023-08-20T14:50:42.492Z,5.03
2023-08-20T14:53:09.920Z,4.67
2023-08-20T14:55:37.353Z,4.50
2023-08-20T14:58:05.517Z,4.67
2023-08-20T15:00:36.394Z,4.30
2023-08-20T15:03:05.661Z,4.60
2023-08-20T15:05:33.131Z,4.37
2023-08-20T15:08:00.676Z,4.00
2023-08-20T15:10:28.083Z,4.93
2023-08-20T15:12:55.543Z,4.70
2023-08-20T15:15:22.938Z,4.13
2023-08-20T15:17:52.043Z,4.67
2023-08-20T15:20:19.451Z,4.33
2023-08-20T15:22:46.865Z,4.23
2023-08-20T15:25:16.254Z,4.10
2023-08-20T15:27:44.041Z,4.03
2023-08-20T15:30:11.674Z,3.90
2023-08-20T15:32:39.377Z,3.83
2023-08-20T15:35:08.153Z,4.20
2023-08-20T15:37:36.081Z,4.57
2023-08-20T15:40:05.556Z,4.80
2023-08-20T15:42:34.312Z,4.97
2023-08-20T15:45:01.861Z,5.23
2023-08-20T15:47:29.269Z,4.93
2023-08-20T15:49:56.711Z,5.27
2023-08-20T15:52:24.200Z,5.30
2023-08-20T15:54:52.077Z,5.40
2023-08-20T15:57:19.679Z,5.43
2023-08-20T15:59:48.395Z,6.60
2023-08-20T16:02:15.850Z,5.30
2023-08-20T16:04:43.270Z,5.20
2023-08-20T16:07:10.687Z,5.50
2023-08-20T16:09:43.241Z,5.40
2023-08-20T16:12:09.564Z,5.40
2023-08-20T16:14:36.764Z,6.37
2023-08-20T16:17:04.165Z,6.27
2023-08-20T16:19:31.648Z,4.60
2023-08-20T16:21:59.107Z,4.70
2023-08-20T16:24:26.529Z,5.00
2023-08-20T16:26:54.135Z,5.27
2023-08-20T16:29:21.565Z,6.20
2023-08-20T16:31:48.973Z,5.03
2023-08-20T16:34:16.330Z,5.40
2023-08-20T16:36:43.729Z,5.23
2023-08-20T16:39:11.198Z,5.67
2023-08-20T16:41:38.638Z,5.10
2023-08-20T16:44:06.106Z,5.57
2023-08-20T16:46:33.569Z,4.53
2023-08-20T16:49:03.033Z,4.90
2023-08-20T16:51:30.964Z,4.70
2023-08-20T16:53:59.480Z,6.07
2023-08-20T16:56:27.330Z,4.90
2023-08-20T16:58:54.757Z,5.37
2023-08-20T17:01:22.182Z,4.80
2023-08-20T17:03:51.100Z,5.37
2023-08-20T17:06:18.878Z,5.07
2023-08-20T17:08:47.063Z,5.03
2023-08-20T17:11:14.504Z,4.97
2023-08-20T17:13:42.743Z,4.53
2023-08-20T17:16:10.938Z,5.83
2023-08-20T17:18:39.044Z,4.70
2023-08-20T17:21:06.499Z,4.80
2023-08-20T17:23:34.392Z,5.50
2023-08-20T17:26:01.823Z,4.90
2023-08-20T17:28:29.253Z,4.80
2023-08-20T17:30:56.874Z,4.70
2023-08-20T17:33:24.365Z,4.90
2023-08-20T17:35:52.053Z,5.40
2023-08-20T17:38:20.954Z,5.80
2023-08-20T17:40:48.860Z,5.20
2023-08-20T17:43:17.541Z,6.20
2023-08-20T17:45:45.445Z,6.03
2023-08-20T17:48:15.686Z,6.47
2023-08-20T17:50:41.892Z,6.23
2023-08-20T17:53:09.981Z,7.40
2023-08-20T17:55:37.457Z,7.13
2023-08-20T17:58:05.977Z,6.87
2023-08-20T18:00:33.447Z,8.13
2023-08-20T18:03:01.238Z,7.60
2023-08-20T18:05:28.619Z,7.27
2023-08-20T18:07:56.528Z,7.37
2023-08-20T18:10:24.153Z,8.77
2023-08-20T18:12:51.973Z,9.47
2023-08-20T18:15:19.472Z,7.80
2023-08-20T18:17:46.918Z,8.13
2023-08-20T18:20:15.510Z,8.53
2023-08-20T18:22:43.217Z,8.30
2023-08-20T18:25:11.696Z,9.23
2023-08-20T18:27:39.121Z,7.33
2023-08-20T18:30:07.019Z,8.90
2023-08-20T18:32:34.563Z,9.70
2023-08-20T18:35:02.176Z,11.10
2023-08-20T18:37:29.639Z,11.00
2023-08-20T18:39:57.106Z,11.43
2023-08-20T18:42:24.923Z,10.77
2023-08-20T18:44:52.796Z,13.20
2023-08-20T18:47:20.238Z,13.50
2023-08-20T18:49:48.245Z,11.60
2023-08-20T18:52:16.025Z,11.60
2023-08-20T18:54:44.576Z,10.87
2023-08-20T18:57:12.920Z,11.23
2023-08-20T18:59:40.612Z,11.87
2023-08-20T19:02:08.102Z,12.37
2023-08-20T19:04:36.485Z,11.40
2023-08-20T19:07:04.867Z,13.57
2023-08-20T19:09:32.696Z,11.87
2023-08-20T19:12:00.202Z,11.57
2023-08-20T19:14:27.848Z,12.20
2023-08-20T19:16:55.635Z,11.13
2023-08-20T19:19:23.067Z,11.10
2023-08-20T19:21:50.410Z,10.50
2023-08-20T19:24:17.844Z,10.63
2023-08-20T19:26:45.275Z,12.30
2023-08-20T19:29:12.818Z,10.43
2023-08-20T19:31:40.372Z,11.07
2023-08-20T19:34:08.285Z,10.40
2023-08-20T19:36:35.741Z,11.13
2023-08-20T19:39:04.874Z,10.20
2023-08-20T19:41:32.622Z,9.43
2023-08-20T19:44:00.053Z,10.07
2023-08-20T19:46:27.574Z,11.10
2023-08-20T19:48:54.941Z,9.90
2023-08-20T19:51:22.754Z,10.00
2023-08-20T19:53:50.143Z,10.37
2023-08-20T19:56:17.576Z,10.40
2023-08-20T19:58:45.003Z,9.80
2023-08-20T20:01:12.469Z,10.13
2023-08-20T20:03:39.880Z,10.70
2023-08-20T20:06:07.309Z,9.93
2023-08-20T20:08:34.802Z,9.50
2023-08-20T20:11:02.216Z,10.10
2023-08-20T20:13:30.210Z,9.10
2023-08-20T20:15:58.388Z,9.53
2023-08-20T20:18:25.823Z,12.67
2023-08-20T20:20:53.272Z,9.53
2023-08-20T20:23:20.686Z,8.60
2023-08-20T20:25:48.125Z,10.27
2023-08-20T20:28:17.192Z,12.23
2023-08-20T20:30:45.971Z,10.70
2023-08-20T20:33:13.491Z,13.67
2023-08-20T20:35:40.921Z,13.30
2023-08-20T20:38:09.128Z,9.73
2023-08-20T20:40:37.328Z,10.00
2023-08-20T20:43:05.329Z,10.10
2023-08-20T20:45:32.743Z,10.30
2023-08-20T20:48:00.239Z,12.10
2023-08-20T20:50:27.783Z,12.60
2023-08-20T20:52:55.556Z,11.80
2023-08-20T20:55:22.981Z,10.73
2023-08-20T20:57:50.404Z,10.90
2023-08-20T21:00:18.243Z,12.33
2023-08-20T21:02:45.726Z,10.33
2023-08-20T21:05:13.094Z,10.10
2023-08-20T21:07:40.615Z,10.53
2023-08-20T21:10:08.441Z,11.30
2023-08-20T21:12:36.166Z,10.40
2023-08-20T21:15:03.970Z,10.53
2023-08-20T21:17:31.469Z,11.03
2023-08-20T21:19:59.228Z,10.87
2023-08-20T21:22:26.767Z,11.00
2023-08-20T21:24:54.194Z,9.20
2023-08-20T21:27:22.436Z,11.83
2023-08-20T21:29:49.846Z,10.30
2023-08-20T21:32:17.211Z,10.53
2023-08-20T21:34:46.291Z,11.13
2023-08-20T21:37:13.900Z,11.10
2023-08-20T21:39:41.323Z,9.90
2023-08-20T21:42:08.756Z,12.20
2023-08-20T21:44:36.170Z,10.87
2023-08-20T21:47:05.145Z,12.30
2023-08-20T21:49:32.580Z,9.10
2023-08-20T21:52:00.019Z,10.33
2023-08-20T21:54:27.452Z,10.87
2023-08-20T21:56:55.840Z,12.20
2023-08-20T21:59:23.285Z,11.70
2023-08-20T22:01:50.967Z,15.73
2023-08-20T22:04:18.808Z,12.80
2023-08-20T22:06:46.244Z,11.23
2023-08-20T22:09:13.660Z,11.20
2023-08-20T22:11:41.031Z,14.80
2023-08-20T22:14:08.454Z,12.00
2023-08-20T22:16:35.875Z,13.13
2023-08-20T22:19:04.407Z,12.57
2023-08-20T22:21:31.832Z,12.97
2023-08-20T22:23:59.296Z,12.10
2023-08-20T22:26:27.275Z,11.90
2023-08-20T22:28:54.652Z,15.77
2023-08-20T22:31:22.184Z,11.60
2023-08-20T22:33:49.587Z,16.60
2023-08-20T22:36:17.021Z,13.33
2023-08-20T22:38:44.446Z,12.30
2023-08-20T22:41:11.880Z,17.33
2023-08-20T22:43:39.313Z,11.30
2023-08-20T22:46:06.839Z,13.30
2023-08-20T22:48:34.233Z,14.63
2023-08-20T22:51:01.668Z,14.30
2023-08-20T22:53:29.088Z,14.17
2023-08-20T22:55:56.531Z,11.90
2023-08-20T22:58:23.958Z,13.00
2023-08-20T23:00:51.408Z,13.23
2023-08-20T23:03:18.837Z,11.70
2023-08-20T23:05:46.416Z,11.50
2023-08-20T23:08:13.852Z,12.63
2023-08-20T23:10:41.283Z,13.30
2023-08-20T23:13:08.716Z,12.43
2023-08-20T23:15:36.131Z,13.57
2023-08-20T23:18:03.874Z,13.07
2023-08-20T23:20:31.313Z,14.00
2023-08-20T23:22:59.189Z,14.00
2023-08-20T23:25:26.598Z,14.37
2023-08-20T23:27:54.518Z,14.07
2023-08-20T23:30:22.501Z,14.90
2023-08-20T23:32:52.695Z,12.93
2023-08-20T23:35:20.477Z,12.63
2023-08-20T23:37:48.187Z,11.87
2023-08-20T23:40:16.098Z,15.00
2023-08-20T23:42:43.465Z,13.40
2023-08-20T23:45:10.965Z,15.57
2023-08-20T23:47:38.808Z,13.93
2023-08-20T23:50:06.620Z,13.80
2023-08-20T23:52:34.136Z,12.90
2023-08-20T23:55:01.497Z,12.67
2023-08-20T23:57:28.923Z,16.67
2023-08-20T23:59:56.379Z,13.87
